Time;durP1;ratioP1;P1;durP2;ratioP2;P2;SDS_P1;SDS_P2;PMS_P1;PMS_P2;Temp;Humidity;BMP_temperature;BMP_pressure;BME280_temperature;BME280_humidity;BME280_pressure;Samples;Min_cycle;Max_cycle;Signal;HPM_P1;HPM_P2
2022/09/28 00:00:40;;;;;;;42.58;29.88;;;;;;;5.76;100.00;99442.50;5082281;28;20024;-69
2022/09/28 00:03:08;;;;;;;45.63;30.58;;;;;;;5.80;100.00;99450.41;5083841;28;20111;-69
2022/09/28 00:05:33;;;;;;;44.90;30.42;;;;;;;5.81;100.00;99455.63;5081688;28;20035;-69
2022/09/28 00:07:58;;;;;;;45.53;31.38;;;;;;;5.85;100.00;99462.63;5084720;28;20020;-69
2022/09/28 00:10:23;;;;;;;47.45;32.90;;;;;;;5.92;100.00;99458.25;5081222;28;20492;-69
2022/09/28 00:12:50;;;;;;;48.33;33.20;;;;;;;5.96;100.00;99456.53;5083560;28;20052;-69
2022/09/28 00:15:15;;;;;;;49.08;35.75;;;;;;;5.93;100.00;99453.03;5082499;28;20027;-71
2022/09/28 00:17:43;;;;;;;49.53;34.67;;;;;;;5.92;100.00;99445.16;5082610;28;20383;-69
2022/09/28 00:20:09;;;;;;;50.97;35.92;;;;;;;5.92;100.00;99446.00;5083254;28;20020;-69
2022/09/28 00:22:34;;;;;;;48.58;36.08;;;;;;;5.93;100.00;99450.41;5081675;28;20032;-70
2022/09/28 00:24:59;;;;;;;50.25;36.10;;;;;;;5.97;100.00;99440.84;5084260;28;20070;-69
2022/09/28 00:27:25;;;;;;;48.55;36.40;;;;;;;6.00;100.00;99439.94;5080925;28;20107;-69
2022/09/28 00:29:50;;;;;;;52.70;36.85;;;;;;;5.97;100.00;99435.59;5083637;28;20053;-71
2022/09/28 00:32:15;;;;;;;48.92;37.10;;;;;;;5.97;100.00;99437.28;5082350;28;20035;-70
2022/09/28 00:34:44;;;;;;;48.70;36.78;;;;;;;5.95;100.00;99439.91;5082408;28;20133;-70
2022/09/28 00:37:12;;;;;;;50.17;37.35;;;;;;;5.96;100.00;99431.16;5082909;28;20064;-70
2022/09/28 00:39:40;;;;;;;51.28;36.58;;;;;;;5.96;100.00;99431.16;5081790;28;20458;-70
2022/09/28 00:42:15;;;;;;;50.88;36.88;;;;;;;5.92;100.00;99426.78;5083523;28;20023;-71
2022/09/28 00:44:49;;;;;;;49.42;37.03;;;;;;;5.87;100.00;99420.69;5082212;28;20080;-72
2022/09/28 00:47:36;;;;;;;51.25;36.65;;;;;;;5.81;100.00;99429.41;5082317;28;20020;-69
2022/09/28 00:50:09;;;;;;;50.83;36.22;;;;;;;5.79;100.00;99417.16;5080918;28;20120;-69
2022/09/28 00:52:41;;;;;;;50.78;37.03;;;;;;;5.77;100.00;99425.03;5083584;28;20024;-69
2022/09/28 00:55:12;;;;;;;49.20;36.95;;;;;;;5.77;100.00;99414.53;5081437;28;20044;-69
2022/09/28 00:57:42;;;;;;;49.17;36.95;;;;;;;5.81;100.00;99416.31;5083208;28;20029;-68
2022/09/28 01:00:09;;;;;;;48.83;36.95;;;;;;;5.85;100.00;99417.16;5084145;28;20036;-70
2022/09/28 01:02:34;;;;;;;49.75;36.70;;;;;;;5.87;100.00;99413.69;5087453;28;20028;-70
2022/09/28 01:05:02;;;;;;;48.38;36.45;;;;;;;5.90;100.00;99410.19;5084751;28;20040;-70
2022/09/28 01:07:28;;;;;;;50.45;37.47;;;;;;;5.91;100.00;99412.81;5084537;28;20066;-71
2022/09/28 01:09:53;;;;;;;49.25;37.08;;;;;;;5.93;100.00;99410.19;5087449;28;20024;-70
2022/09/28 01:12:19;;;;;;;50.75;38.33;;;;;;;5.95;100.00;99413.66;5085511;28;20081;-70
2022/09/28 01:14:45;;;;;;;51.50;38.30;;;;;;;5.97;100.00;99411.03;5086183;28;20418;-70
2022/09/28 01:17:15;;;;;;;49.67;36.92;;;;;;;5.99;100.00;99420.72;5086506;28;20035;-70
2022/09/28 01:19:50;;;;;;;50.63;39.28;;;;;;;5.98;100.00;99412.84;5085649;28;20016;-70
2022/09/28 01:22:33;;;;;;;53.65;39.38;;;;;;;5.98;100.00;99410.22;5085773;28;20028;-70
2022/09/28 01:25:15;;;;;;;54.20;39.92;;;;;;;5.99;100.00;99415.47;5084620;28;20029;-70
2022/09/28 01:27:47;;;;;;;57.40;41.77;;;;;;;5.99;100.00;99414.59;5085856;28;20024;-71
2022/09/28 01:30:18;;;;;;;54.90;40.50;;;;;;;5.98;100.00;99418.94;5085959;28;20069;-70
2022/09/28 01:32:54;;;;;;;54.58;41.05;;;;;;;5.98;100.00;99418.94;5085573;28;20111;-70
2022/09/28 01:35:29;;;;;;;57.22;43.33;;;;;;;6.00;100.00;99421.56;5085038;28;20123;-71
2022/09/28 01:38:01;;;;;;;57.78;43.17;;;;;;;5.98;100.00;99416.31;5087359;28;20563;-70
2022/09/28 01:40:29;;;;;;;60.85;44.20;;;;;;;6.01;100.00;99418.94;5084085;28;20447;-71
2022/09/28 01:43:08;;;;;;;60.45;44.63;;;;;;;6.03;100.00;99426.81;5086928;28;20032;-69
2022/09/28 01:45:45;;;;;;;61.33;44.95;;;;;;;6.04;100.00;99424.22;5083866;28;20024;-69
2022/09/28 01:48:16;;;;;;;62.08;45.78;;;;;;;6.06;100.00;99426.84;5085842;28;20020;-69
2022/09/28 01:50:44;;;;;;;63.53;46.28;;;;;;;6.10;100.00;99437.34;5085272;28;20502;-69
2022/09/28 01:53:23;;;;;;;65.95;48.05;;;;;;;6.11;100.00;99431.19;5085876;28;20024;-69
2022/09/28 01:56:04;;;;;;;68.15;47.83;;;;;;;6.12;100.00;99434.72;5085944;28;20031;-68
2022/09/28 01:58:38;;;;;;;66.20;48.03;;;;;;;6.15;100.00;99432.06;5083424;28;20523;-68
2022/09/28 02:01:11;;;;;;;67.57;48.55;;;;;;;6.19;100.00;99431.22;5083667;28;20036;-69
2022/09/28 02:03:58;;;;;;;68.90;49.25;;;;;;;6.20;100.00;99429.44;5086366;28;20039;-69
2022/09/28 02:06:37;;;;;;;71.25;50.08;;;;;;;6.23;100.00;99427.72;5086264;28;20051;-69
2022/09/28 02:09:10;;;;;;;64.50;48.63;;;;;;;6.24;100.00;99423.31;5083887;28;20028;-69
2022/09/28 02:11:36;;;;;;;;;;;;;;;6.24;100.00;99418.94;5086350;28;20020;-69
2022/09/28 02:14:07;;;;;;;63.90;47.35;;;;;;;6.25;100.00;99427.72;5083492;28;19916;-69
2022/09/28 02:16:40;;;;;;;63.47;46.03;;;;;;;6.24;100.00;99421.56;5086539;28;20065;-69
2022/09/28 02:19:21;;;;;;;61.45;44.55;;;;;;;6.19;100.00;99423.34;5082579;28;20077;-68
2022/09/28 02:21:58;;;;;;;56.88;42.28;;;;;;;6.14;100.00;99419.81;5084656;28;20028;-69
2022/09/28 02:24:31;;;;;;;54.85;40.35;;;;;;;6.05;100.00;99411.97;5084755;28;20036;-69
2022/09/28 02:27:02;;;;;;;53.53;39.10;;;;;;;5.99;100.00;99419.84;5082872;28;20029;-69
2022/09/28 02:29:27;;;;;;;50.20;37.90;;;;;;;5.91;100.00;99414.53;5082886;28;20020;-69
2022/09/28 02:31:52;;;;;;;51.38;37.42;;;;;;;5.81;100.00;99411.06;5085914;28;20047;-70
2022/09/28 02:34:18;;;;;;;49.53;35.70;;;;;;;5.76;100.00;99424.13;5082389;28;20128;-70
2022/09/28 02:36:45;;;;;;;48.78;35.42;;;;;;;5.74;100.00;99422.41;5084172;28;20123;-69
2022/09/28 02:39:15;;;;;;;45.85;33.88;;;;;;;5.67;100.00;99416.28;5085135;28;20459;-69
2022/09/28 02:41:53;;;;;;;46.05;33.53;;;;;;;5.65;100.00;99415.41;5084180;28;20054;-70
2022/09/28 02:44:51;;;;;;;45.65;32.50;;;;;;;5.59;100.00;99416.28;5083525;28;20032;-69
2022/09/28 02:47:32;;;;;;;45.42;31.48;;;;;;;5.53;100.00;99418.88;5084513;28;20476;-70
2022/09/28 02:50:03;;;;;;;42.90;30.13;;;;;;;5.49;100.00;99424.97;5082563;28;20017;-73
2022/09/28 02:52:56;;;;;;;41.33;29.77;;;;;;;5.46;100.00;99424.97;5082449;28;20468;-69
2022/09/28 02:55:59;;;;;;;41.83;29.20;;;;;;;5.47;100.00;99423.22;5085085;28;20060;-69
2022/09/28 02:58:51;;;;;;;45.58;29.73;;;;;;;5.51;100.00;99428.47;5085601;28;20060;-69
2022/09/28 03:01:46;;;;;;;41.42;28.05;;;;;;;5.53;100.00;99432.00;5084345;28;20452;-70
2022/09/28 03:04:20;;;;;;;41.50;28.80;;;;;;;5.55;100.00;99427.63;5083644;28;20055;-69
2022/09/28 03:07:09;;;;;;;41.55;27.20;;;;;;;5.52;100.00;99419.75;5084288;28;20059;-69
2022/09/28 03:09:57;;;;;;;40.63;27.83;;;;;;;5.57;100.00;99425.00;5082800;28;20017;-69
2022/09/28 03:12:24;;;;;;;39.28;25.65;;;;;;;5.61;100.00;99426.75;5082726;28;20032;-69
2022/09/28 03:15:20;;;;;;;39.45;26.33;;;;;;;5.64;100.00;99423.28;5084935;28;20380;-68
2022/09/28 03:17:46;;;;;;;37.83;25.05;;;;;;;5.66;100.00;99427.63;5083962;28;20025;-69
2022/09/28 03:20:12;;;;;;;38.60;24.60;;;;;;;5.67;100.00;99424.13;5084269;28;20020;-69
2022/09/28 03:22:37;;;;;;;38.13;24.33;;;;;;;5.68;100.00;99431.13;5081564;28;20016;-71
2022/09/28 03:25:05;;;;;;;38.70;23.67;;;;;;;5.69;100.00;99425.00;5085324;28;20463;-68
2022/09/28 03:27:30;;;;;;;35.53;23.00;;;;;;;5.73;100.00;99428.53;5081708;28;20073;-69
2022/09/28 03:29:55;;;;;;;36.03;22.02;;;;;;;5.73;100.00;99423.28;5085240;28;20020;-69
2022/09/28 03:32:21;;;;;;;35.03;22.20;;;;;;;5.75;100.00;99429.38;5082734;28;20103;-70
2022/09/28 03:34:46;;;;;;;33.50;20.85;;;;;;;5.76;100.00;99425.91;5083438;28;20020;-69
2022/09/28 03:37:11;;;;;;;33.80;20.45;;;;;;;5.72;100.00;99426.75;5083543;28;20055;-69
2022/09/28 03:39:37;;;;;;;32.95;19.20;;;;;;;5.68;100.00;99428.50;5082482;28;20028;-72
2022/09/28 03:42:02;;;;;;;30.33;18.02;;;;;;;5.65;100.00;99431.13;5084939;28;20534;-70
2022/09/28 03:44:27;;;;;;;33.10;18.45;;;;;;;5.64;100.00;99428.50;5081670;28;20037;-69
2022/09/28 03:46:53;;;;;;;30.33;17.88;;;;;;;5.63;100.00;99426.75;5084641;28;20035;-69
2022/09/28 03:49:18;;;;;;;30.75;17.42;;;;;;;5.61;100.00;99434.63;5082878;28;20024;-69
2022/09/28 03:51:43;;;;;;;29.80;16.90;;;;;;;5.58;100.00;99432.00;5083022;28;20025;-69
2022/09/28 03:54:09;;;;;;;32.35;16.90;;;;;;;5.57;100.00;99427.63;5083925;28;20032;-69
2022/09/28 03:56:34;;;;;;;29.90;16.20;;;;;;;5.53;100.00;99439.84;5081609;28;20024;-69
2022/09/28 03:59:02;;;;;;;29.58;16.15;;;;;;;5.52;100.00;99430.22;5085238;28;20371;-69
2022/09/28 04:01:27;;;;;;;29.23;16.20;;;;;;;5.53;100.00;99437.22;5081182;28;20089;-69
2022/09/28 04:03:56;;;;;;;30.25;16.67;;;;;;;5.54;100.00;99444.19;5083765;28;20032;-69
2022/09/28 04:06:23;;;;;;;29.63;15.85;;;;;;;5.57;100.00;99438.09;5082135;28;20028;-69
2022/09/28 04:08:48;;;;;;;29.40;16.25;;;;;;;5.60;100.00;99432.84;5083065;28;20036;-69
2022/09/28 04:11:13;;;;;;;27.90;14.70;;;;;;;5.65;100.00;99435.50;5083253;28;20024;-69
2022/09/28 04:13:39;;;;;;;28.48;14.15;;;;;;;5.65;100.00;99440.72;5081911;28;20094;-69
2022/09/28 04:16:05;;;;;;;27.90;14.13;;;;;;;5.70;100.00;99429.38;5082538;28;20043;-69
2022/09/28 04:18:32;;;;;;;29.10;14.43;;;;;;;5.72;100.00;99439.88;5080957;28;20039;-69
2022/09/28 04:21:06;;;;;;;27.60;13.77;;;;;;;5.73;100.00;99434.63;5084674;28;20387;-69
2022/09/28 04:23:36;;;;;;;27.65;13.75;;;;;;;5.77;100.00;99435.53;5080805;28;20103;-69
2022/09/28 04:26:04;;;;;;;27.92;13.95;;;;;;;5.78;100.00;99436.38;5080870;28;20028;-69
2022/09/28 04:31:17;;;;;;;24.77;11.70;;;;;;;5.78;100.00;99428.53;5082080;28;20047;-69
2022/09/28 04:33:42;;;;;;;24.40;11.07;;;;;;;5.77;100.00;99425.03;5083224;28;20055;-69
2022/09/28 04:36:09;;;;;;;25.20;11.23;;;;;;;5.79;100.00;99423.28;5081283;28;20083;-69
2022/09/28 04:38:35;;;;;;;24.10;11.00;;;;;;;5.78;100.00;99420.66;5084086;28;20069;-69
2022/09/28 04:41:00;;;;;;;24.60;10.80;;;;;;;5.75;100.00;99427.66;5079613;28;20028;-69
2022/09/28 04:43:26;;;;;;;23.90;10.23;;;;;;;5.71;100.00;99423.28;5083668;28;20473;-69
2022/09/28 04:45:51;;;;;;;22.95;9.88;;;;;;;5.65;100.00;99425.00;5081689;28;20421;-69
2022/09/28 04:48:17;;;;;;;22.20;9.13;;;;;;;5.58;100.00;99425.00;5082672;28;20025;-69
2022/09/28 04:50:42;;;;;;;21.58;8.38;;;;;;;5.54;100.00;99425.84;5083181;28;20039;-69
2022/09/28 04:53:07;;;;;;;20.80;8.40;;;;;;;5.53;100.00;99436.34;5081429;28;20021;-69
2022/09/28 04:55:33;;;;;;;23.92;8.73;;;;;;;5.47;100.00;99436.34;5084203;28;20054;-69
2022/09/28 04:58:01;;;;;;;20.70;8.77;;;;;;;5.45;100.00;99436.31;5080576;28;20474;-70
2022/09/28 05:00:31;;;;;;;21.58;8.65;;;;;;;5.35;100.00;99438.03;5083856;28;20028;-71
2022/09/28 05:02:57;;;;;;;21.90;9.05;;;;;;;5.29;100.00;99447.66;5080774;28;20056;-70
2022/09/28 05:05:22;;;;;;;21.33;8.70;;;;;;;5.29;100.00;99447.66;5082897;28;20067;-69
2022/09/28 05:07:48;;;;;;;21.05;8.82;;;;;;;5.22;100.00;99447.59;5082301;28;20027;-70
2022/09/28 05:10:13;;;;;;;21.63;8.77;;;;;;;5.22;100.00;99451.97;5081740;28;20028;-70
2022/09/28 05:12:38;;;;;;;21.58;8.85;;;;;;;5.19;100.00;99447.59;5083234;28;20032;-70
2022/09/28 05:15:04;;;;;;;23.63;9.05;;;;;;;5.21;100.00;99451.09;5080610;28;20078;-69
2022/09/28 05:17:30;;;;;;;21.58;8.65;;;;;;;5.24;100.00;99442.34;5080179;28;20474;-70
2022/09/28 05:19:56;;;;;;;22.20;8.68;;;;;;;5.27;100.00;99449.38;5083546;28;20023;-70
2022/09/28 05:22:21;;;;;;;21.67;9.32;;;;;;;5.27;100.00;99446.75;5081617;28;20391;-70
2022/09/28 05:24:46;;;;;;;22.00;9.45;;;;;;;5.26;100.00;99444.97;5082179;28;20036;-71
2022/09/28 05:27:12;;;;;;;23.42;10.18;;;;;;;5.27;100.00;99454.59;5082692;28;20489;-70
2022/09/28 05:29:37;;;;;;;23.13;10.10;;;;;;;5.27;100.00;99454.59;5081257;28;20433;-70
2022/09/28 05:32:02;;;;;;;22.83;9.85;;;;;;;5.28;100.00;99456.38;5083721;28;20364;-69
2022/09/28 05:34:28;;;;;;;22.20;9.75;;;;;;;5.27;100.00;99449.38;5080320;28;20064;-70
2022/09/28 05:36:53;;;;;;;22.85;9.88;;;;;;;5.25;100.00;99449.34;5082898;28;20075;-71
2022/09/28 05:39:19;;;;;;;23.35;10.25;;;;;;;5.21;100.00;99447.59;5081125;28;20406;-68
2022/09/28 05:41:44;;;;;;;24.23;10.32;;;;;;;5.19;100.00;99447.59;5085405;28;20025;-67
2022/09/28 05:44:10;;;;;;;23.77;10.57;;;;;;;5.17;100.00;99449.34;5083902;28;20077;-67
2022/09/28 05:46:35;;;;;;;23.02;10.65;;;;;;;5.19;100.00;99444.97;5087315;28;20012;-67
2022/09/28 05:49:00;;;;;;;24.08;11.27;;;;;;;5.22;100.00;99442.34;5087604;28;20500;-67
2022/09/28 05:51:26;;;;;;;23.85;11.55;;;;;;;5.28;100.00;99445.88;5090144;28;20032;-67
2022/09/28 05:53:55;;;;;;;24.33;12.43;;;;;;;5.36;100.00;99450.28;5085401;28;20028;-67
2022/09/28 05:56:21;;;;;;;25.30;12.75;;;;;;;5.43;100.00;99455.53;5090013;28;20031;-68
2022/09/28 05:58:46;;;;;;;26.67;12.90;;;;;;;5.46;100.00;99456.44;5087650;28;20020;-69
2022/09/28 06:01:11;;;;;;;26.80;13.50;;;;;;;5.47;100.00;99458.16;5090076;28;20112;-69
2022/09/28 06:03:37;;;;;;;26.85;13.82;;;;;;;5.46;100.00;99464.31;5090048;28;20020;-68
2022/09/28 06:06:02;;;;;;;27.20;14.00;;;;;;;5.41;100.00;99463.41;5087491;28;20485;-67
2022/09/28 06:08:31;;;;;;;26.92;14.27;;;;;;;5.36;100.00;99463.38;5089026;28;20044;-68
2022/09/28 06:11:00;;;;;;;28.02;14.70;;;;;;;5.34;100.00;99467.72;5087774;28;20501;-67
2022/09/28 06:13:26;;;;;;;28.30;14.85;;;;;;;5.30;100.00;99467.72;5088896;28;20458;-68
2022/09/28 06:15:52;;;;;;;30.13;15.90;;;;;;;5.26;100.00;99472.09;5090439;28;20020;-68
2022/09/28 06:18:17;;;;;;;28.50;16.00;;;;;;;5.24;100.00;99471.19;5088703;28;20115;-66
2022/09/28 06:20:43;;;;;;;31.17;16.45;;;;;;;5.24;100.00;99477.31;5090796;28;20039;-69
2022/09/28 06:23:10;;;;;;;30.23;16.80;;;;;;;5.22;100.00;99478.19;5088113;28;20047;-68
2022/09/28 06:25:35;;;;;;;31.58;17.63;;;;;;;5.19;100.00;99478.16;5087288;28;20069;-69
2022/09/28 06:28:06;;;;;;;32.50;18.30;;;;;;;5.19;100.00;99483.41;5085466;28;20036;-69
2022/09/28 06:30:33;;;;;;;31.90;19.00;;;;;;;5.17;100.00;99477.25;5088529;28;20036;-67
2022/09/28 06:33:00;;;;;;;34.97;19.98;;;;;;;5.19;100.00;99483.41;5090092;28;20028;-68
2022/09/28 06:35:29;;;;;;;34.17;19.60;;;;;;;5.21;100.00;99484.28;5086727;28;20032;-69
2022/09/28 06:37:55;;;;;;;34.83;21.67;;;;;;;5.26;100.00;99495.66;5086396;28;20421;-69
2022/09/28 06:40:21;;;;;;;37.67;21.98;;;;;;;5.26;100.00;99479.03;5087763;28;20025;-67
2022/09/28 06:43:17;;;;;;;38.38;23.05;;;;;;;5.28;100.00;99486.06;5091453;28;20031;-68
2022/09/28 06:45:50;;;;;;;40.17;24.52;;;;;;;5.33;100.00;99486.06;5086235;28;20110;-69
2022/09/28 06:48:16;;;;;;;42.47;26.15;;;;;;;5.34;100.00;99493.94;5086520;28;20031;-68
2022/09/28 06:50:42;;;;;;;41.60;26.50;;;;;;;5.40;100.00;99493.09;5086125;28;20025;-70
2022/09/28 06:53:10;;;;;;;41.90;27.30;;;;;;;5.46;100.00;99495.75;5090265;28;20088;-69
2022/09/28 06:55:47;;;;;;;44.20;28.52;;;;;;;5.51;100.00;99503.63;5089071;28;20032;-67
2022/09/28 06:58:16;;;;;;;44.35;29.33;;;;;;;5.56;100.00;99494.91;5085987;28;20390;-69
2022/09/28 07:00:42;;;;;;;45.72;30.17;;;;;;;5.61;100.00;99494.03;5087833;28;20115;-68
2022/09/28 07:03:12;;;;;;;43.38;29.08;;;;;;;5.72;100.00;99501.06;5086996;28;20425;-69
2022/09/28 07:05:44;;;;;;;45.20;29.95;;;;;;;5.77;100.00;99506.34;5088171;28;20417;-69
2022/09/28 07:08:09;;;;;;;46.97;31.00;;;;;;;5.88;100.00;99501.09;5083800;28;20041;-70
2022/09/28 07:10:39;;;;;;;45.03;29.27;;;;;;;5.97;100.00;99510.72;5091235;28;20025;-68
2022/09/28 07:13:05;;;;;;;42.25;29.08;;;;;;;6.08;100.00;99506.41;5083191;28;20490;-69
2022/09/28 07:15:31;;;;;;;45.83;30.17;;;;;;;6.17;100.00;99511.66;5088312;28;20020;-68
2022/09/28 07:18:01;;;;;;;42.58;29.17;;;;;;;6.20;100.00;99514.28;5087681;28;20524;-69
2022/09/28 07:20:26;;;;;;;43.10;28.70;;;;;;;6.19;100.00;99512.56;5086476;28;20025;-68
2022/09/28 07:22:59;;;;;;;41.83;28.48;;;;;;;6.23;100.00;99514.31;5087796;28;20085;-70
2022/09/28 07:25:25;;;;;;;40.67;27.67;;;;;;;6.26;100.00;99516.03;5084088;28;20032;-67
2022/09/28 07:27:54;;;;;;;41.58;28.17;;;;;;;6.32;100.00;99517.81;5090422;28;20028;-68
2022/09/28 07:30:19;;;;;;;41.00;28.20;;;;;;;6.39;100.00;99525.69;5082060;28;20030;-69
2022/09/28 07:32:47;;;;;;;40.17;27.38;;;;;;;6.45;100.00;99515.19;5087359;28;20025;-66
2022/09/28 07:35:12;;;;;;;37.63;25.20;;;;;;;6.49;100.00;99521.31;5078061;28;20474;-66
2022/09/28 07:37:38;;;;;;;36.17;23.75;;;;;;;6.51;100.00;99526.56;5077753;28;20156;-67
2022/09/28 07:42:49;;;;;;;36.58;22.80;;;;;;;6.60;100.00;99519.56;5088570;28;20509;-67
2022/09/28 07:45:14;;;;;;;36.15;23.05;;;;;;;6.67;100.00;99522.16;5089411;28;20051;-67
2022/09/28 07:47:40;;;;;;;35.85;23.33;;;;;;;6.71;100.00;99524.78;5087522;28;20439;-67
2022/09/28 07:50:05;;;;;;;33.38;22.08;;;;;;;6.76;100.00;99524.81;5087340;28;20024;-67
2022/09/28 07:52:33;;;;;;;32.65;21.58;;;;;;;6.82;100.00;99532.69;5087143;28;20031;-67
2022/09/28 07:55:00;;;;;;;32.63;21.52;;;;;;;6.84;100.00;99523.03;5086470;28;20107;-67
2022/09/28 07:57:26;;;;;;;33.63;21.15;;;;;;;6.93;100.00;99533.53;5087163;28;20099;-67
2022/09/28 07:59:52;;;;;;;32.47;20.25;;;;;;;7.01;100.00;99532.66;5089124;28;20032;-67
2022/09/28 08:02:18;;;;;;;32.08;19.75;;;;;;;7.09;100.00;99533.50;5086939;28;20034;-67
2022/09/28 08:04:47;;;;;;;30.92;19.90;;;;;;;7.12;100.00;99537.00;5083027;28;20024;-67
2022/09/28 08:07:16;;;;;;;32.08;20.02;;;;;;;7.23;100.00;99539.59;5088656;28;20371;-67
2022/09/28 08:09:42;;;;;;;29.75;19.13;;;;;;;7.24;100.00;99549.25;5081810;28;20031;-68
2022/09/28 08:12:08;;;;;;;31.52;18.90;;;;;;;7.28;100.00;99536.94;5085616;28;20032;-67
2022/09/28 08:14:34;;;;;;;28.45;19.45;;;;;;;7.45;100.00;99544.78;5085023;28;20024;-69
2022/09/28 08:17:00;;;;;;;31.27;19.80;;;;;;;7.47;100.00;99550.91;5084491;28;20028;-68
2022/09/28 08:21:43;;;;;;;29.88;19.35;;;;;;;7.53;100.00;99555.25;5081976;28;20118;-68
2022/09/28 08:22:11;;;;;;;30.52;19.13;;;;;;;7.60;100.00;99557.00;5083876;28;20044;-68
2022/09/28 08:24:36;;;;;;;29.05;18.70;;;;;;;7.63;100.00;99547.34;5080780;28;20036;-70
2022/09/28 08:27:02;;;;;;;28.77;17.55;;;;;;;7.71;100.00;99560.47;5084378;28;20158;-68
2022/09/28 08:29:30;;;;;;;27.42;17.10;;;;;;;7.75;100.00;99550.81;5079881;28;20028;-68
2022/09/28 08:31:56;;;;;;;27.17;16.48;;;;;;;7.91;100.00;99557.75;5082755;28;20020;-70
2022/09/28 08:34:22;;;;;;;25.88;15.75;;;;;;;7.99;100.00;99555.97;5085744;28;20119;-68
2022/09/28 08:36:47;;;;;;;28.30;16.05;;;;;;;8.06;100.00;99559.41;5086553;28;20119;-70
2022/09/28 08:39:12;;;;;;;26.48;15.40;;;;;;;8.16;100.00;99570.75;5084566;28;20046;-68
2022/09/28 08:41:49;;;;;;;26.25;14.20;;;;;;;8.20;100.00;99581.25;5086636;28;20024;-69
2022/09/28 08:44:22;;;;;;;25.52;13.73;;;;;;;8.45;100.00;99573.22;5084592;28;20119;-70
2022/09/28 08:46:57;;;;;;;23.60;12.88;;;;;;;8.64;100.00;99584.50;5083979;28;20042;-70
2022/09/28 08:49:25;;;;;;;22.92;12.95;;;;;;;9.01;100.00;99585.94;5087305;28;20060;-67
2022/09/28 08:52:22;;;;;;;23.33;12.38;;;;;;;9.42;100.00;99582.91;5082416;28;20467;-68
2022/09/28 08:54:55;;;;;;;22.52;11.13;;;;;;;9.90;100.00;99579.69;5084689;28;20027;-69
2022/09/28 08:57:29;;;;;;;22.10;10.48;;;;;;;10.13;100.00;99581.13;5086354;28;20446;-73
2022/09/28 08:59:57;;;;;;;21.13;10.18;;;;;;;10.17;100.00;99577.56;5082712;28;20033;-74
2022/09/28 09:02:41;;;;;;;21.02;9.50;;;;;;;10.19;100.00;99580.19;5086035;28;20032;-73
2022/09/28 09:05:13;;;;;;;19.73;8.65;;;;;;;10.54;100.00;99581.47;5086744;28;20073;-70
2022/09/28 09:08:31;;;;;;;19.63;7.68;;;;;;;11.01;100.00;99574.53;5084757;28;20027;-69
2022/09/28 09:11:17;;;;;;;19.80;8.00;;;;;;;11.13;100.00;99590.16;5032540;28;20045;-69
2022/09/28 09:14:01;;;;;;;19.08;7.50;;;;;;;11.56;100.00;99584.97;5041711;28;20021;-70
2022/09/28 09:16:35;;;;;;;18.95;7.30;;;;;;;11.60;100.00;99594.59;5033381;28;20034;-69
2022/09/28 09:19:43;;;;;;;19.35;7.50;;;;;;;11.76;100.00;99603.97;5037515;28;20056;-70
2022/09/28 09:22:16;;;;;;;18.88;7.20;;;;;;;11.71;100.00;99600.56;4951167;29;20051;-69
2022/09/28 09:25:01;;;;;;;19.20;6.85;;;;;;;11.93;100.00;99597.47;4951180;29;20503;-69
2022/09/28 09:27:42;;;;;;;18.27;7.10;;;;;;;11.67;100.00;99604.16;4952522;29;20106;-70
2022/09/28 09:30:11;;;;;;;18.52;6.72;;;;;;;11.47;100.00;99608.06;4954543;29;20089;-69
2022/09/28 09:32:42;;;;;;;18.92;6.68;;;;;;;11.71;100.00;99604.97;4953549;29;20099;-70
2022/09/28 09:35:19;;;;;;;17.40;5.88;;;;;;;11.99;100.00;99605.31;4953743;29;20058;-69
2022/09/28 09:38:18;;;;;;;15.93;5.57;;;;;;;12.66;100.00;99605.56;4950814;29;20586;-67
2022/09/28 09:41:01;;;;;;;16.27;5.35;;;;;;;13.13;100.00;99618.56;4948131;29;20036;-67
2022/09/28 09:43:35;;;;;;;16.77;5.60;;;;;;;13.29;100.00;99612.88;4947620;28;20036;-67
2022/09/28 09:46:27;;;;;;;15.30;4.70;;;;;;;12.87;100.00;99612.16;4984728;28;20533;-67
2022/09/28 09:48:59;;;;;;;16.75;5.40;;;;;;;12.23;100.00;99614.50;4982638;28;20054;-67
2022/09/28 09:51:39;;;;;;;16.38;5.25;;;;;;;12.46;100.00;99627.22;4982792;28;20054;-67
2022/09/28 09:54:28;;;;;;;17.92;5.60;;;;;;;12.68;100.00;99626.75;4984096;28;20034;-67
2022/09/28 09:57:03;;;;;;;15.95;5.20;;;;;;;12.52;100.00;99621.81;4982393;28;20042;-68
2022/09/28 09:59:33;;;;;;;16.30;5.53;;;;;;;13.00;100.00;99617.13;5046282;28;20036;-68
2022/09/28 10:02:22;;;;;;;14.98;4.72;;;;;;;14.01;100.00;99617.97;5086419;28;20080;-68
2022/09/28 10:04:51;;;;;;;15.23;4.60;;;;;;;14.52;100.00;99612.03;5087730;28;20025;-68
2022/09/28 10:07:24;;;;;;;14.48;4.80;;;;;;;14.55;100.00;99619.91;5083427;28;20551;-68
2022/09/28 10:09:54;;;;;;;14.77;4.60;;;;;;;14.10;100.00;99613.28;5083582;28;20028;-68
2022/09/28 10:12:21;;;;;;;13.63;4.50;;;;;;;14.48;100.00;99613.03;5085058;28;20031;-68
2022/09/28 10:14:47;;;;;;;15.45;5.07;;;;;;;15.17;100.00;99607.28;5083466;28;20078;-68
2022/09/28 10:17:25;;;;;;;16.75;5.15;;;;;;;15.46;100.00;99610.72;5084385;28;20459;-68
2022/09/28 10:19:51;;;;;;;11.77;3.80;;;;;;;15.31;100.00;99613.00;5084988;28;20107;-71
2022/09/28 10:22:21;;;;;;;12.77;3.80;;;;;;;13.85;100.00;99607.81;5082836;28;20116;-68
2022/09/28 10:24:50;;;;;;;14.25;4.57;;;;;;;13.52;100.00;99615.81;5082145;28;20562;-68
2022/09/28 10:27:26;;;;;;;13.68;4.78;;;;;;;14.21;100.00;99609.44;5086595;28;20024;-68
2022/09/28 10:30:01;;;;;;;13.80;4.53;;;;;;;14.74;100.00;99606.06;5083370;28;20030;-68
2022/09/28 10:32:40;;;;;;;16.88;4.45;;;;;;;15.73;100.00;99607.97;5085073;28;20016;-68
2022/09/28 10:35:17;;;;;;;16.20;4.32;;;;;;;15.99;100.00;99610.59;5084040;28;20028;-68
2022/09/28 10:38:04;;;;;;;12.77;3.75;;;;;;;16.19;100.00;99606.28;5082889;28;20470;-69
2022/09/28 10:40:43;;;;;;;14.05;4.50;;;;;;;15.24;100.00;99610.59;5085024;28;20025;-68
2022/09/28 10:43:22;;;;;;;16.20;4.45;;;;;;;16.73;100.00;99605.06;5082944;28;20031;-69
2022/09/28 10:45:59;;;;;;;15.27;4.60;;;;;;;16.00;100.00;99608.78;5083087;28;20040;-69
2022/09/28 10:48:27;;;;;;;15.25;5.20;;;;;;;14.69;100.00;99607.97;5084714;28;20085;-68
2022/09/28 10:51:07;;;;;;;15.60;5.00;;;;;;;14.14;100.00;99616.72;5083558;28;20021;-68
2022/09/28 10:53:35;;;;;;;16.25;5.03;;;;;;;13.37;100.00;99609.13;5083515;28;20050;-68
2022/09/28 10:56:02;;;;;;;13.82;4.80;;;;;;;15.29;100.00;99608.63;5084742;28;20021;-68
2022/09/28 10:58:32;;;;;;;14.73;4.50;;;;;;;17.33;100.00;99609.72;5083966;28;20102;-69
2022/09/28 11:01:02;;;;;;;15.23;4.10;;;;;;;18.53;100.00;99602.56;5084127;28;20017;-69
2022/09/28 11:03:28;;;;;;;12.25;3.20;;;;;;;19.44;100.00;99603.38;5084257;28;20024;-69
2022/09/28 11:06:04;;;;;;;12.18;3.47;;;;;;;20.45;99.14;99605.13;5082266;28;20028;-76
2022/09/28 11:08:39;;;;;;;11.90;3.30;;;;;;;20.45;92.05;99601.59;5083552;28;20060;-69
2022/09/28 11:11:10;;;;;;;8.70;3.22;;;;;;;21.01;89.10;99605.56;5083428;28;20020;-69
2022/09/28 11:14:02;;;;;;;11.80;3.27;;;;;;;21.35;78.93;99606.25;5083588;28;20035;-67
2022/09/28 11:16:30;;;;;;;10.82;3.00;;;;;;;21.69;71.35;99609.59;5078951;28;20031;-72
2022/09/28 11:18:58;;;;;;;10.52;3.00;;;;;;;21.39;70.75;99605.09;5082718;28;20059;-68
2022/09/28 11:21:26;;;;;;;11.05;3.00;;;;;;;20.00;75.35;99604.03;5088070;28;20024;-66
2022/09/28 11:24:17;;;;;;;9.35;2.75;;;;;;;18.38;84.35;99599.66;5085720;28;20032;-65
2022/09/28 11:26:45;;;;;;;8.25;2.70;;;;;;;17.18;86.00;99603.25;5086164;28;20383;-65
2022/09/28 11:29:25;;;;;;;15.85;3.13;;;;;;;15.94;100.00;99609.03;5087014;28;20067;-65
2022/09/28 11:31:51;;;;;;;10.95;3.00;;;;;;;13.97;100.00;99603.94;5085075;28;20024;-67
2022/09/28 11:34:33;;;;;;;9.70;3.25;;;;;;;13.58;100.00;99601.50;5082954;28;20472;-68
2022/09/28 11:37:42;;;;;;;11.23;3.63;;;;;;;13.31;100.00;99598.66;5084791;28;20593;-69
2022/09/28 11:40:32;;;;;;;13.18;3.33;;;;;;;13.10;100.00;99605.38;5032590;28;20037;-68
2022/09/28 11:43:42;;;;;;;11.13;3.22;;;;;;;12.96;100.00;99603.09;5028890;28;20060;-67